Terminal Aerodrome Forecast
Issued by NWS Charleston, WV

Current Version | Previous Version | Text Only | Print | Product List | Glossary Off
Versions: 1 2 3 4 5 6 7 8 9 10 11 12 13 14 15 16 17 18 19 20 21 22

000
FTUS41 KRLX 160800 AAA
TAFBKW
TAF AMD
KBKW 160837Z 1609/1706 13010G20KT P6SM OVC060
     FM161500 15014G22KT P6SM -SHRA OVC045
     FM161900 14011G18KT P6SM OVC035
     FM170100 15010KT P6SM OVC100=

USA.gov is the U.S. government's official web portal to all federal, state and local government web resources and services.